Kipling, Ohio
Current Conditions -  °F | °C
As of 2:53 AM on Thursday 27 Nov 2014 (Local Time) from KZZV Reporting Station
Overcast Overcast  
Wind Chill: 25°   Ceiling: 3700
Heat Index: 31°   Visibility: 10mi
Dew Point: 24°   Wind: 6mph
Humidity: 76%   Direction: 320°NW
Pressure: 30.03"   Gusts: NA
Location:  40°N, 81.5°W
Report Text: KZZV 270753Z AUTO 32005KT 10SM OVC037 M01/M04 A3003 RMK AO2 SLP175 T10061044
Loading
Personal Weather Stations






























Interactive Weather Map New forecast layout! Learn more

10-Day Weather Forecast

Advertisements
Track Severe Weather on mobile